Terminal Aerodrome Forecast
Issued by NWS

Home | Current Version | Previous Version | Graphics & Text | Print | Product List | Glossary On
Versions: 1 2 3 4 5 6 7 8 9 10 11 12 13 14 15 16
906
FTUS43 KICT 022320
TAFRSL
TAF
KRSL 022320Z 0300/0324 05007KT P6SM BKN200
     FM030900 08004KT P6SM OVC040
     FM031200 09006KT 6SM -RASN OVC020=

USA.gov is the U.S. government's official web portal to all federal, state and local government web resources and services.